createdAt,value
2016-10-04T00:00:25.915Z,99.99
2016-10-04T00:01:25.164Z,99.99
2016-10-04T00:02:25.819Z,99.99
2016-10-04T00:03:25.823Z,99.99
2016-10-04T00:04:25.936Z,99.99
2016-10-04T00:05:25.662Z,99.99
2016-10-04T00:06:26.324Z,99.99
2016-10-04T00:07:25.491Z,99.99
2016-10-04T00:08:25.728Z,99.99
2016-10-04T00:09:26.049Z,99.99
2016-10-04T00:10:26.464Z,99.99
2016-10-04T00:11:25.906Z,99.99
2016-10-04T00:12:25.425Z,99.99
2016-10-04T00:13:27.112Z,99.99
2016-10-04T00:14:25.577Z,99.99
2016-10-04T00:15:25.793Z,99.99
2016-10-04T00:16:25.262Z,99.99
2016-10-04T00:17:25.835Z,99.99
2016-10-04T00:18:26.851Z,99.99
2016-10-04T00:19:26.221Z,99.99
2016-10-04T00:20:25.937Z,99.99
2016-10-04T00:21:26.267Z,99.99
2016-10-04T00:22:25.552Z,99.99
2016-10-04T00:23:26.130Z,99.99
2016-10-04T00:24:26.452Z,99.99
2016-10-04T00:25:25.761Z,99.99
2016-10-04T00:26:25.657Z,99.99
2016-10-04T00:27:25.948Z,99.99
2016-10-04T00:28:25.618Z,99.99
2016-10-04T00:29:25.884Z,99.99
2016-10-04T00:30:26.837Z,99.99
2016-10-04T00:31:26.658Z,99.99
2016-10-04T00:32:26.062Z,99.99
2016-10-04T00:33:25.965Z,99.99
2016-10-04T00:34:25.825Z,99.99
2016-10-04T00:35:26.581Z,99.99
2016-10-04T00:36:26.488Z,99.99
2016-10-04T00:37:26.239Z,99.99
2016-10-04T00:38:26.072Z,99.99
2016-10-04T00:39:26.205Z,99.99
2016-10-04T00:40:26.269Z,99.99
2016-10-04T00:41:26.141Z,99.99
2016-10-04T00:42:26.153Z,99.99
2016-10-04T00:43:26.120Z,99.99
2016-10-04T00:44:26.856Z,99.99
2016-10-04T00:45:26.512Z,99.99
2016-10-04T00:46:26.132Z,99.99
2016-10-04T00:47:26.705Z,99.99
2016-10-04T00:48:25.917Z,99.99
2016-10-04T00:49:26.482Z,99.99
2016-10-04T00:50:27.049Z,99.99
2016-10-04T00:51:25.964Z,99.99
2016-10-04T00:52:26.810Z,99.99
2016-10-04T00:53:26.392Z,99.99
2016-10-04T00:54:26.566Z,99.99
2016-10-04T00:55:26.936Z,99.99
2016-10-04T00:56:26.764Z,99.99
2016-10-04T00:57:26.386Z,99.99
2016-10-04T00:58:27.249Z,99.99
2016-10-04T00:59:26.141Z,99.99
2016-10-04T01:00:26.791Z,99.99
2016-10-04T01:01:26.641Z,99.99
2016-10-04T01:02:26.306Z,99.99
2016-10-04T01:03:26.502Z,99.99
2016-10-04T01:04:26.732Z,99.99
2016-10-04T01:05:27.821Z,99.99
2016-10-04T01:06:26.743Z,99.99
2016-10-04T01:07:27.058Z,99.99
2016-10-04T01:08:27.801Z,99.99
2016-10-04T01:09:27.041Z,99.99
2016-10-04T01:10:27.456Z,99.99
2016-10-04T01:11:26.943Z,99.99
2016-10-04T01:12:26.592Z,99.99
2016-10-04T01:13:27.694Z,99.99
2016-10-04T01:14:26.813Z,99.99
2016-10-04T01:15:27.236Z,99.99
2016-10-04T01:16:27.780Z,99.99
2016-10-04T01:17:27.364Z,99.99
2016-10-04T01:18:26.728Z,99.99
2016-10-04T01:19:26.858Z,99.99
2016-10-04T01:20:27.570Z,99.99
2016-10-04T01:21:26.867Z,99.99
2016-10-04T01:22:26.525Z,99.99
2016-10-04T01:23:26.827Z,99.99
2016-10-04T01:24:27.223Z,99.99
2016-10-04T01:25:26.795Z,99.99
2016-10-04T01:26:27.674Z,99.99
2016-10-04T01:27:27.253Z,99.99
2016-10-04T01:28:27.247Z,99.99
2016-10-04T01:29:27.919Z,99.99
2016-10-04T01:30:26.905Z,99.99
2016-10-04T01:31:27.642Z,99.99
2016-10-04T01:32:26.992Z,99.99
2016-10-04T01:33:27.058Z,99.99
2016-10-04T01:34:27.572Z,99.99
2016-10-04T01:35:27.158Z,99.99
2016-10-04T01:36:27.717Z,99.99
2016-10-04T01:37:27.677Z,99.99
2016-10-04T01:38:27.357Z,99.99
2016-10-04T01:39:27.173Z,99.99
2016-10-04T01:40:27.124Z,99.99
2016-10-04T01:41:28.262Z,99.99
2016-10-04T01:42:27.601Z,99.99
2016-10-04T01:43:28.183Z,99.99
2016-10-04T01:44:28.354Z,99.99
2016-10-04T01:45:27.663Z,99.99
2016-10-04T01:46:27.646Z,99.99
2016-10-04T01:47:27.665Z,99.99
2016-10-04T01:48:27.552Z,99.99
2016-10-04T01:49:27.997Z,99.99
2016-10-04T01:50:27.982Z,99.99
2016-10-04T01:51:27.319Z,99.99
2016-10-04T01:52:27.264Z,99.99
2016-10-04T01:53:27.281Z,99.99
2016-10-04T01:54:27.621Z,99.99
2016-10-04T01:55:27.724Z,99.99
2016-10-04T01:56:27.836Z,99.99
2016-10-04T01:57:27.776Z,99.99
2016-10-04T01:58:27.437Z,99.99
2016-10-04T01:59:27.948Z,99.99
2016-10-04T02:00:27.692Z,99.99
2016-10-04T02:01:28.480Z,99.99
2016-10-04T02:02:28.038Z,99.99
2016-10-04T02:03:27.803Z,99.99
2016-10-04T02:04:27.462Z,99.99
2016-10-04T02:05:28.168Z,99.99
2016-10-04T02:06:28.068Z,99.99
2016-10-04T02:07:27.640Z,99.99
2016-10-04T02:08:28.258Z,99.99
2016-10-04T02:09:27.713Z,99.99
2016-10-04T02:10:28.647Z,99.99
2016-10-04T02:11:27.973Z,99.99
2016-10-04T02:12:28.001Z,99.99
2016-10-04T02:13:28.704Z,99.99
2016-10-04T02:14:27.574Z,99.99
2016-10-04T02:15:28.157Z,99.99
2016-10-04T02:16:28.905Z,99.99
2016-10-04T02:17:28.337Z,99.99
2016-10-04T02:18:28.445Z,99.99
2016-10-04T02:19:27.760Z,99.99
2016-10-04T02:20:28.481Z,99.99
2016-10-04T02:21:28.041Z,99.8
2016-10-04T02:22:27.644Z,99.8
2016-10-04T02:23:27.806Z,99.8
2016-10-04T02:24:28.062Z,99.89
2016-10-04T02:25:28.480Z,99.75
2016-10-04T02:26:27.969Z,99.94
2016-10-04T02:27:27.983Z,99.89
2016-10-04T02:28:28.560Z,99.8
2016-10-04T02:29:28.180Z,99.51
2016-10-04T02:30:28.057Z,99.51
2016-10-04T02:31:28.892Z,99.89
2016-10-04T02:32:28.430Z,99.99
2016-10-04T02:33:28.193Z,99.32
2016-10-04T02:34:28.597Z,99.6
2016-10-04T02:35:28.164Z,99.41
2016-10-04T02:36:28.325Z,99.13
2016-10-04T02:37:29.135Z,99.32
2016-10-04T02:38:28.472Z,99.13
2016-10-04T02:39:28.431Z,98.94
2016-10-04T02:40:28.079Z,99.04
2016-10-04T02:41:28.624Z,99.04
2016-10-04T02:42:28.188Z,99.13
2016-10-04T02:43:28.541Z,98.94
2016-10-04T02:44:28.614Z,99.13
2016-10-04T02:45:28.544Z,99.13
2016-10-04T02:46:28.734Z,99.04
2016-10-04T02:47:28.414Z,99.04
2016-10-04T02:48:28.387Z,99.13
2016-10-04T02:49:28.872Z,98.85
2016-10-04T02:50:29.196Z,98.85
2016-10-04T02:51:28.910Z,99.13
2016-10-04T02:52:29.027Z,98.94
2016-10-04T02:53:28.841Z,98.85
2016-10-04T02:54:29.305Z,98.85
2016-10-04T02:55:28.926Z,99.04
2016-10-04T02:56:29.058Z,99.51
2016-10-04T02:57:28.525Z,98.65
2016-10-04T02:58:28.550Z,99.04
2016-10-04T02:59:29.237Z,98.85
2016-10-04T03:00:29.327Z,98.85
2016-10-04T03:01:28.971Z,98.85
2016-10-04T03:02:28.662Z,98.94
2016-10-04T03:03:29.080Z,99.18
2016-10-04T03:04:29.973Z,99.13
2016-10-04T03:05:28.972Z,99.32
2016-10-04T03:06:28.760Z,99.13
2016-10-04T03:07:28.785Z,99.85
2016-10-04T03:08:29.237Z,99.27
2016-10-04T03:09:29.218Z,99.27
2016-10-04T03:10:29.545Z,99.46
2016-10-04T03:11:29.371Z,99.46
2016-10-04T03:12:28.961Z,99.22
2016-10-04T03:13:29.103Z,99.99
2016-10-04T03:14:29.802Z,99.85
2016-10-04T03:15:29.299Z,99.66
2016-10-04T03:16:29.006Z,99.18
2016-10-04T03:17:29.234Z,99.85
2016-10-04T03:18:29.417Z,99.99
2016-10-04T03:19:29.166Z,99.75
2016-10-04T03:20:29.053Z,99.75
2016-10-04T03:21:29.148Z,99.85
2016-10-04T03:22:29.013Z,99.95
2016-10-04T03:23:29.019Z,99.85
2016-10-04T03:24:29.245Z,99.95
2016-10-04T03:25:30.888Z,99.75
2016-10-04T03:26:28.842Z,99.85
2016-10-04T03:27:29.883Z,99.66
2016-10-04T03:28:29.422Z,99.99
2016-10-04T03:29:29.007Z,99.95
2016-10-04T03:30:29.588Z,99.99
2016-10-04T03:31:29.087Z,99.75
2016-10-04T03:32:29.484Z,99.85
2016-10-04T03:33:30.528Z,99.99
2016-10-04T03:34:29.995Z,99.99
2016-10-04T03:35:30.071Z,99.75
2016-10-04T03:36:29.493Z,99.99
2016-10-04T03:37:29.764Z,99.66
2016-10-04T03:38:29.310Z,99.99
2016-10-04T03:39:29.478Z,99.66
2016-10-04T03:40:29.803Z,99.66
2016-10-04T03:41:29.947Z,99.85
2016-10-04T03:42:29.810Z,99.66
2016-10-04T03:43:29.602Z,99.95
2016-10-04T03:44:30.081Z,99.75
2016-10-04T03:45:30.086Z,99.66
2016-10-04T03:46:29.805Z,99.85
2016-10-04T03:47:29.390Z,99.99
2016-10-04T03:48:29.481Z,99.66
2016-10-04T03:49:30.172Z,99.85
2016-10-04T03:50:29.548Z,99.85
2016-10-04T03:51:30.156Z,99.95
2016-10-04T03:52:30.280Z,99.99
2016-10-04T03:53:30.232Z,99.99
2016-10-04T03:54:30.336Z,99.99
2016-10-04T03:55:29.658Z,99.99
2016-10-04T03:56:29.909Z,99.99
2016-10-04T03:57:30.156Z,99.95
2016-10-04T03:58:30.054Z,99.95
2016-10-04T03:59:29.766Z,99.95
2016-10-04T04:00:29.586Z,99.99
2016-10-04T04:01:30.001Z,99.95
2016-10-04T04:02:30.499Z,99.99
2016-10-04T04:03:30.190Z,99.95
2016-10-04T04:04:30.564Z,99.95
2016-10-04T04:05:29.809Z,99.85
2016-10-04T04:06:30.221Z,99.85
2016-10-04T04:07:30.385Z,99.85
2016-10-04T04:08:31.220Z,99.75
2016-10-04T04:09:30.280Z,99.66
2016-10-04T04:10:30.736Z,99.95
2016-10-04T04:11:30.106Z,99.95
2016-10-04T04:12:30.663Z,99.95
2016-10-04T04:13:30.402Z,99.99
2016-10-04T04:14:30.060Z,99.75
2016-10-04T04:15:30.141Z,99.75
2016-10-04T04:16:30.490Z,99.27
2016-10-04T04:17:29.820Z,99.18
2016-10-04T04:18:30.085Z,99.95
2016-10-04T04:19:30.227Z,99.75
2016-10-04T04:20:30.362Z,99.66
2016-10-04T04:21:30.578Z,99.99
2016-10-04T04:22:30.963Z,99.95
2016-10-04T04:23:30.459Z,99.46
2016-10-04T04:24:30.496Z,99.85
2016-10-04T04:25:30.748Z,99.08
2016-10-04T04:26:30.657Z,99.27
2016-10-04T04:27:30.289Z,99.18
2016-10-04T04:28:30.642Z,99.27
2016-10-04T04:29:30.538Z,99.37
2016-10-04T04:30:30.361Z,99.37
2016-10-04T04:31:30.644Z,99.46
2016-10-04T04:32:30.295Z,99.37
2016-10-04T04:33:30.522Z,99.75
2016-10-04T04:34:30.618Z,98.99
2016-10-04T04:35:30.901Z,98.99
2016-10-04T04:36:30.786Z,99.27
2016-10-04T04:37:30.826Z,99.18
2016-10-04T04:38:30.404Z,98.7
2016-10-04T04:39:30.321Z,99.08
2016-10-04T04:40:30.499Z,98.9
2016-10-04T04:41:30.740Z,98.99
2016-10-04T04:42:30.756Z,99.18
2016-10-04T04:43:30.940Z,98.32
2016-10-04T04:44:31.772Z,97.75
2016-10-04T04:45:30.344Z,96.8
2016-10-04T04:46:30.568Z,96.56
2016-10-04T04:47:31.180Z,96.46
2016-10-04T04:48:31.179Z,96.46
2016-10-04T04:49:31.024Z,95.51
2016-10-04T04:50:30.660Z,95.79
2016-10-04T04:51:32.018Z,95.7
2016-10-04T04:52:30.684Z,95.89
2016-10-04T04:53:31.646Z,95.61
2016-10-04T04:54:31.272Z,96.08
2016-10-04T04:55:30.858Z,95.89
2016-10-04T04:56:30.865Z,96.46
2016-10-04T04:57:31.650Z,96.46
2016-10-04T04:58:30.829Z,96.08
2016-10-04T04:59:31.220Z,95.61
2016-10-04T05:00:31.376Z,95.22
2016-10-04T05:01:30.619Z,95.12
2016-10-04T05:02:31.798Z,95.32
2016-10-04T05:03:31.168Z,94.84
2016-10-04T05:04:30.763Z,93.22
2016-10-04T05:05:31.493Z,93.12
2016-10-04T05:06:31.127Z,93.31
2016-10-04T05:07:31.403Z,93.22
2016-10-04T05:08:31.300Z,92.93
2016-10-04T05:09:32.500Z,92.83
2016-10-04T05:10:31.456Z,92.83
2016-10-04T05:11:31.802Z,92.74
2016-10-04T05:12:31.254Z,92.83
2016-10-04T05:13:30.899Z,92.17
2016-10-04T05:14:30.988Z,91.74
2016-10-04T05:15:31.189Z,91.74
2016-10-04T05:16:31.173Z,92.55
2016-10-04T05:17:31.533Z,92.17
2016-10-04T05:18:31.331Z,92.46
2016-10-04T05:19:31.396Z,91.88
2016-10-04T05:20:31.523Z,92.36
2016-10-04T05:21:31.782Z,92.17
2016-10-04T05:22:31.944Z,92.36
2016-10-04T05:23:31.851Z,92.26
2016-10-04T05:24:32.640Z,92.46
2016-10-04T05:25:31.330Z,92.65
2016-10-04T05:26:32.504Z,92.55
2016-10-04T05:27:31.291Z,92.83
2016-10-04T05:28:32.093Z,92.55
2016-10-04T05:29:31.983Z,92.83
2016-10-04T05:30:32.131Z,92.83
2016-10-04T05:31:31.278Z,92.83
2016-10-04T05:32:31.937Z,92.55
2016-10-04T05:33:32.085Z,92.55
2016-10-04T05:34:31.452Z,91.6
2016-10-04T05:35:31.639Z,91.98
2016-10-04T05:36:31.183Z,91.78
2016-10-04T05:37:31.948Z,91.5
2016-10-04T05:38:32.098Z,91.98
2016-10-04T05:39:31.869Z,91.98
2016-10-04T05:40:31.521Z,91.78
2016-10-04T05:41:31.466Z,91.41
2016-10-04T05:42:32.683Z,91.69
2016-10-04T05:43:32.269Z,91.55
2016-10-04T05:44:31.610Z,91.78
2016-10-04T05:45:32.207Z,91.31
2016-10-04T05:46:32.266Z,90.83
2016-10-04T05:47:32.212Z,91.31
2016-10-04T05:48:32.392Z,91.12
2016-10-04T05:49:32.541Z,89.97
2016-10-04T05:50:31.874Z,90.17
2016-10-04T05:51:32.685Z,90.21
2016-10-04T05:52:32.850Z,89.31
2016-10-04T05:53:32.649Z,89.25
2016-10-04T05:54:31.794Z,89.35
2016-10-04T05:55:32.612Z,90.02
2016-10-04T05:56:32.447Z,89.25
2016-10-04T05:57:32.217Z,88.78
2016-10-04T05:58:32.417Z,89.06
2016-10-04T05:59:31.890Z,89.31
2016-10-04T06:00:31.972Z,89.31
2016-10-04T06:01:31.791Z,89.31
2016-10-04T06:02:33.216Z,89.16
2016-10-04T06:03:32.242Z,89.35
2016-10-04T06:04:32.566Z,89.06
2016-10-04T06:05:32.156Z,89.16
2016-10-04T06:06:32.794Z,88.49
2016-10-04T06:07:32.798Z,89.35
2016-10-04T06:08:32.369Z,88.64
2016-10-04T06:09:32.645Z,88.87
2016-10-04T06:10:32.440Z,88.3
2016-10-04T06:11:32.602Z,88.68
2016-10-04T06:12:32.919Z,88.4
2016-10-04T06:13:32.231Z,88.49
2016-10-04T06:14:33.182Z,88.3
2016-10-04T06:15:32.531Z,87.92
2016-10-04T06:16:32.623Z,87.82
2016-10-04T06:17:32.542Z,87.82
2016-10-04T06:18:32.599Z,88.11
2016-10-04T06:19:32.358Z,87.25
2016-10-04T06:20:32.474Z,86.96
2016-10-04T06:21:32.667Z,86.68
2016-10-04T06:22:33.154Z,86.39
2016-10-04T06:23:32.507Z,86.87
2016-10-04T06:24:32.294Z,87.06
2016-10-04T06:25:32.588Z,87.15
2016-10-04T06:26:34.008Z,87.44
2016-10-04T06:27:32.625Z,87.25
2016-10-04T06:28:32.792Z,87.35
2016-10-04T06:29:32.838Z,86.96
2016-10-04T06:30:32.473Z,86.96
2016-10-04T06:31:33.501Z,86.96
2016-10-04T06:32:32.844Z,87.63
2016-10-04T06:33:33.012Z,87.92
2016-10-04T06:34:32.965Z,87.73
2016-10-04T06:35:32.716Z,88.68
2016-10-04T06:36:34.006Z,88.2
2016-10-04T06:37:32.672Z,88.78
2016-10-04T06:38:33.038Z,88.87
2016-10-04T06:39:32.636Z,88.78
2016-10-04T06:40:32.663Z,89.54
2016-10-04T06:41:33.265Z,88.87
2016-10-04T06:42:33.815Z,88.68
2016-10-04T06:43:33.482Z,89.06
2016-10-04T06:44:33.112Z,89.16
2016-10-04T06:45:32.995Z,88.78
2016-10-04T06:46:32.915Z,88.78
2016-10-04T06:47:32.853Z,88.87
2016-10-04T06:48:32.896Z,88.87
2016-10-04T06:49:33.412Z,88.49
2016-10-04T06:50:32.929Z,87.63
2016-10-04T06:51:33.529Z,87.73
2016-10-04T06:52:33.529Z,87.63
2016-10-04T06:53:33.007Z,88.87
2016-10-04T06:54:33.395Z,87.35
2016-10-04T06:55:33.006Z,86.58
2016-10-04T06:56:33.758Z,86.01
2016-10-04T06:57:33.455Z,85.15
2016-10-04T06:58:33.175Z,85.44
2016-10-04T06:59:33.838Z,85.25
2016-10-04T07:00:33.157Z,86.2
2016-10-04T07:01:33.552Z,85.58
2016-10-04T07:02:34.027Z,86.82
2016-10-04T07:03:33.271Z,85.58
2016-10-04T07:04:34.035Z,85.96
2016-10-04T07:05:33.903Z,85.48
2016-10-04T07:06:33.817Z,85.86
2016-10-04T07:07:34.041Z,84.91
2016-10-04T07:08:33.836Z,84.62
2016-10-04T07:09:33.666Z,84.52
2016-10-04T07:10:33.543Z,83.76
2016-10-04T07:11:33.614Z,83.86
2016-10-04T07:12:33.583Z,84.81
2016-10-04T07:13:34.637Z,84.72
2016-10-04T07:14:34.012Z,83.38
2016-10-04T07:15:34.094Z,82.9
2016-10-04T07:16:33.586Z,83.28
2016-10-04T07:17:33.495Z,83
2016-10-04T07:18:33.909Z,83.38
2016-10-04T07:19:33.913Z,83.09
2016-10-04T07:20:34.115Z,82.9
2016-10-04T07:21:33.945Z,83.23
2016-10-04T07:22:33.744Z,83.42
2016-10-04T07:23:34.005Z,83.04
2016-10-04T07:24:34.647Z,82.75
2016-10-04T07:25:34.245Z,81.89
2016-10-04T07:26:33.954Z,82.23
2016-10-04T07:27:33.834Z,81.47
2016-10-04T07:28:34.035Z,82.52
2016-10-04T07:29:33.851Z,82.32
2016-10-04T07:30:34.935Z,81.89
2016-10-04T07:31:34.183Z,82.61
2016-10-04T07:32:34.025Z,82.65
2016-10-04T07:33:33.736Z,81.85
2016-10-04T07:34:34.008Z,82.42
2016-10-04T07:35:34.195Z,82.61
2016-10-04T07:36:34.101Z,82.18
2016-10-04T07:37:33.801Z,82.61
2016-10-04T07:38:34.506Z,82.75
2016-10-04T07:39:34.807Z,81.7
2016-10-04T07:40:34.665Z,82.32
2016-10-04T07:41:34.638Z,83
2016-10-04T07:42:34.019Z,82.08
2016-10-04T07:43:34.578Z,82.04
2016-10-04T07:44:33.877Z,81.79
2016-10-04T07:45:34.554Z,82.28
2016-10-04T07:46:34.257Z,81.51
2016-10-04T07:47:34.381Z,81.51
2016-10-04T07:48:34.121Z,81.51
2016-10-04T07:49:34.838Z,81.89
2016-10-04T07:50:35.206Z,81.41
2016-10-04T07:51:33.994Z,81.7
2016-10-04T07:52:34.082Z,82.08
2016-10-04T07:53:34.258Z,81.51
2016-10-04T07:54:34.869Z,80.46
2016-10-04T07:55:35.102Z,80.74
2016-10-04T07:56:34.293Z,81.22
2016-10-04T07:57:34.061Z,81.41
2016-10-04T07:58:34.673Z,81.13
2016-10-04T07:59:34.686Z,80.74
2016-10-04T08:00:34.981Z,81.99
2016-10-04T08:01:34.920Z,81.32
2016-10-04T08:02:34.561Z,80.93
2016-10-04T08:03:35.346Z,81.03
2016-10-04T08:04:35.347Z,80.36
2016-10-04T08:05:35.180Z,80.27
2016-10-04T08:06:34.572Z,80.93
2016-10-04T08:07:34.856Z,80.74
2016-10-04T08:08:35.663Z,80.36
2016-10-04T08:09:34.895Z,81.03
2016-10-04T08:10:35.352Z,81.51
2016-10-04T08:11:34.613Z,80.74
2016-10-04T08:12:34.986Z,80.41
2016-10-04T08:13:34.666Z,80.36
2016-10-04T08:14:35.249Z,80.61
2016-10-04T08:15:35.382Z,80.32
2016-10-04T08:16:35.294Z,80.22
2016-10-04T08:17:34.891Z,80.61
2016-10-04T08:18:35.237Z,80.55
2016-10-04T08:19:34.514Z,80.07
2016-10-04T08:20:35.355Z,79.6
2016-10-04T08:21:35.168Z,80.74
2016-10-04T08:22:36.451Z,80.27
2016-10-04T08:23:34.787Z,79.88
2016-10-04T08:24:35.403Z,80.74
2016-10-04T08:25:34.976Z,80.17
2016-10-04T08:26:34.462Z,80.27
2016-10-04T08:27:35.550Z,79.12
2016-10-04T08:28:35.192Z,80.07
2016-10-04T08:29:35.395Z,79.12
2016-10-04T08:30:36.268Z,79.12
2016-10-04T08:31:35.318Z,79.31
2016-10-04T08:32:35.389Z,79.02
2016-10-04T08:33:35.769Z,78.55
2016-10-04T08:34:34.942Z,79.41
2016-10-04T08:35:35.113Z,79.69
2016-10-04T08:36:35.686Z,79.31
2016-10-04T08:37:35.320Z,79.35
2016-10-04T08:38:35.465Z,79.25
2016-10-04T08:39:35.808Z,77.28
2016-10-04T08:40:35.316Z,76.33
2016-10-04T08:41:35.441Z,75.51
2016-10-04T08:42:35.247Z,74.93
2016-10-04T08:43:36.349Z,76.04
2016-10-04T08:44:35.812Z,76.62
2016-10-04T08:45:35.526Z,76.42
2016-10-04T08:46:35.206Z,77
2016-10-04T08:47:35.995Z,77.67
2016-10-04T08:48:35.366Z,77.28
2016-10-04T08:49:35.389Z,75.76
2016-10-04T08:50:35.396Z,75.7
2016-10-04T08:51:35.500Z,75.22
2016-10-04T08:52:36.018Z,75.7
2016-10-04T08:53:35.479Z,76.08
2016-10-04T08:54:36.307Z,76.75
2016-10-04T08:55:35.655Z,77
2016-10-04T08:56:35.556Z,76.81
2016-10-04T08:57:35.475Z,77.48
2016-10-04T08:58:35.756Z,76.33
2016-10-04T08:59:35.265Z,77
2016-10-04T09:00:35.825Z,77.82
2016-10-04T09:01:35.905Z,77.34
2016-10-04T09:02:35.721Z,77.34
2016-10-04T09:03:36.043Z,78.36
2016-10-04T09:04:35.630Z,78.36
2016-10-04T09:05:36.163Z,78.36
2016-10-04T09:06:36.114Z,79.12
2016-10-04T09:07:35.816Z,78.45
2016-10-04T09:08:36.412Z,79.02
2016-10-04T09:09:36.327Z,79.41
2016-10-04T09:10:36.135Z,78.45
2016-10-04T09:11:35.890Z,78.83
2016-10-04T09:12:36.134Z,78.26
2016-10-04T09:13:36.304Z,79.6
2016-10-04T09:14:36.245Z,78.45
2016-10-04T09:15:36.922Z,78.78
2016-10-04T09:16:36.573Z,79.83
2016-10-04T09:17:36.226Z,79.54
2016-10-04T09:18:36.112Z,78.2
2016-10-04T09:19:36.312Z,78.01
2016-10-04T09:20:36.499Z,75.7
2016-10-04T09:21:35.853Z,75.93
2016-10-04T09:22:35.922Z,73.95
2016-10-04T09:23:36.207Z,72.71
2016-10-04T09:24:35.969Z,71.46
2016-10-04T09:25:36.390Z,72.9
2016-10-04T09:26:36.320Z,70.64
2016-10-04T09:27:36.327Z,69.71
2016-10-04T09:28:35.871Z,68.37
2016-10-04T09:29:36.569Z,70.29
2016-10-04T09:30:36.091Z,68.79
2016-10-04T09:31:35.963Z,70.57
2016-10-04T09:32:36.314Z,70.13
2016-10-04T09:33:36.694Z,66.52
2016-10-04T09:34:36.337Z,64.66
2016-10-04T09:35:37.163Z,62.84
2016-10-04T09:36:36.558Z,63.28
2016-10-04T09:37:37.034Z,63.12
2016-10-04T09:38:36.354Z,63.32
2016-10-04T09:39:36.632Z,62.64
2016-10-04T09:40:36.959Z,64.4
2016-10-04T09:41:36.415Z,62.96
2016-10-04T09:42:36.380Z,62.99
2016-10-04T09:43:36.387Z,62.42
2016-10-04T09:44:37.538Z,62.16
2016-10-04T09:45:36.479Z,64.31
2016-10-04T09:46:36.994Z,63.38
2016-10-04T09:47:36.363Z,61.3
2016-10-04T09:48:36.601Z,61.78
2016-10-04T09:49:36.530Z,62.19
2016-10-04T09:50:36.579Z,63.79
2016-10-04T09:51:38.174Z,65.52
2016-10-04T09:52:36.950Z,65.97
2016-10-04T09:53:36.825Z,66.51
2016-10-04T09:54:37.685Z,66.48
2016-10-04T09:55:37.119Z,67.34
2016-10-04T09:56:36.623Z,69.13
2016-10-04T09:57:37.505Z,69.8
2016-10-04T09:58:37.562Z,69.67
2016-10-04T09:59:37.625Z,71.45
2016-10-04T10:00:36.724Z,71.83
2016-10-04T10:01:37.191Z,72.31
2016-10-04T10:02:37.396Z,71.36
2016-10-04T10:03:37.069Z,72.79
2016-10-04T10:04:36.954Z,72.12
2016-10-04T10:05:37.949Z,71.55
2016-10-04T10:06:38.048Z,71.42
2016-10-04T10:07:37.364Z,69.54
2016-10-04T10:08:37.385Z,68.52
2016-10-04T10:09:37.447Z,66.16
2016-10-04T10:10:37.784Z,66.51
2016-10-04T10:11:37.187Z,63.29
2016-10-04T10:12:37.304Z,63.79
2016-10-04T10:13:37.732Z,62.04
2016-10-04T10:14:37.585Z,58.06
2016-10-04T10:15:37.687Z,54.17
2016-10-04T10:16:37.886Z,53.4
2016-10-04T10:17:37.800Z,52.97
2016-10-04T10:18:37.284Z,54.69
2016-10-04T10:19:38.881Z,54.55
2016-10-04T10:20:37.240Z,57.36
2016-10-04T10:21:37.361Z,55.66
2016-10-04T10:22:37.757Z,54.28
2016-10-04T10:23:38.290Z,54.45
2016-10-04T10:24:37.708Z,56.79
2016-10-04T10:25:37.968Z,59.77
2016-10-04T10:26:37.724Z,58.56
2016-10-04T10:27:38.206Z,60.76
2016-10-04T10:28:37.467Z,60.25
2016-10-04T10:29:37.724Z,60.73
2016-10-04T10:30:38.306Z,61.28
2016-10-04T10:31:37.906Z,61.66
2016-10-04T10:32:38.088Z,62.68
2016-10-04T10:33:38.315Z,62.4
2016-10-04T10:34:38.013Z,63.83
2016-10-04T10:35:38.815Z,62.84
2016-10-04T10:36:38.293Z,62.4
2016-10-04T10:37:37.848Z,62.87
2016-10-04T10:38:38.181Z,63.83
2016-10-04T10:39:38.280Z,64.02
2016-10-04T10:40:38.252Z,62.52
2016-10-04T10:41:38.577Z,62.07
2016-10-04T10:42:38.797Z,61.63
2016-10-04T10:43:38.128Z,60.67
2016-10-04T10:44:38.454Z,57.63
2016-10-04T10:45:38.173Z,58.55
2016-10-04T10:46:38.597Z,56.92
2016-10-04T10:47:38.103Z,57.78
2016-10-04T10:48:38.162Z,59.61
2016-10-04T10:49:38.067Z,57.65
2016-10-04T10:50:38.712Z,57.68
2016-10-04T10:51:38.259Z,57.23
2016-10-04T10:52:38.546Z,56.34
2016-10-04T10:53:39.059Z,58.1
2016-10-04T10:54:38.407Z,58.39
2016-10-04T10:55:38.932Z,57.84
2016-10-04T10:56:38.800Z,56.89
2016-10-04T10:57:38.366Z,57.33
2016-10-04T10:58:39.596Z,58.36
2016-10-04T10:59:38.873Z,55.24
2016-10-04T11:00:38.578Z,53.92
2016-10-04T11:01:39.766Z,53.86
2016-10-04T11:02:38.807Z,51.26
2016-10-04T11:03:39.261Z,49.63
2016-10-04T11:04:38.918Z,50.49
2016-10-04T11:05:38.562Z,50.32
2016-10-04T11:06:39.190Z,50.76
2016-10-04T11:07:39.767Z,50.18
2016-10-04T11:08:39.697Z,49.02
2016-10-04T11:09:38.522Z,51.4
2016-10-04T11:10:39.222Z,51.25
2016-10-04T11:11:38.648Z,53.3
2016-10-04T11:12:38.888Z,49.6
2016-10-04T11:13:39.608Z,48.08
2016-10-04T11:14:39.052Z,47.97
2016-10-04T11:15:38.655Z,47.8
2016-10-04T11:16:39.071Z,47.7
2016-10-04T11:17:39.303Z,48.85
2016-10-04T11:18:38.803Z,49.77
2016-10-04T11:19:39.126Z,49.79
2016-10-04T11:20:39.847Z,47.1
2016-10-04T11:21:38.822Z,47.41
2016-10-04T11:22:39.325Z,48.11
2016-10-04T11:23:39.370Z,48.93
2016-10-04T11:24:38.878Z,47.97
2016-10-04T11:25:39.318Z,48.08
2016-10-04T11:26:39.316Z,46.57
2016-10-04T11:27:39.601Z,45.8
2016-10-04T11:28:41.082Z,45.51
2016-10-04T11:29:39.723Z,46.09
2016-10-04T11:30:39.392Z,47.41
2016-10-04T11:31:39.853Z,44.74
2016-10-04T11:32:39.488Z,44.28
2016-10-04T11:33:39.689Z,45.61
2016-10-04T11:34:40.375Z,45.9
2016-10-04T11:35:39.560Z,44.76
2016-10-04T11:36:39.719Z,45.15
2016-10-04T11:37:39.386Z,45.7
2016-10-04T11:38:40.076Z,44.74
2016-10-04T11:39:39.566Z,48.83
2016-10-04T11:40:39.610Z,46.74
2016-10-04T11:41:39.445Z,46.81
2016-10-04T11:42:39.755Z,48.9
2016-10-04T11:43:39.429Z,48.49
2016-10-04T11:44:39.671Z,47.2
2016-10-04T11:45:39.855Z,48.45
2016-10-04T11:46:39.650Z,47.97
2016-10-04T11:47:39.990Z,48.69
2016-10-04T11:48:40.268Z,46.47
2016-10-04T11:49:39.853Z,47.22
2016-10-04T11:50:40.655Z,49.48
2016-10-04T11:51:40.093Z,46.55
2016-10-04T11:52:39.884Z,45.68
2016-10-04T11:53:40.392Z,47.58
2016-10-04T11:54:40.108Z,47.66
2016-10-04T11:55:40.089Z,50.1
2016-10-04T11:56:39.735Z,51.35
2016-10-04T11:57:40.748Z,48.95
2016-10-04T11:58:40.579Z,48.76
2016-10-04T11:59:40.569Z,49.41
2016-10-04T12:00:39.976Z,51.14
2016-10-04T12:01:40.489Z,51.78
2016-10-04T12:02:40.485Z,50.94
2016-10-04T12:03:40.817Z,48.76
2016-10-04T12:04:40.311Z,47.82
2016-10-04T12:05:40.910Z,50.23
2016-10-04T12:06:40.812Z,52.38
2016-10-04T12:07:40.617Z,54.21
2016-10-04T12:08:40.220Z,51.81
2016-10-04T12:09:40.968Z,53.31
2016-10-04T12:10:40.397Z,55.87
2016-10-04T12:11:40.351Z,54.27
2016-10-04T12:12:40.423Z,55.42
2016-10-04T12:13:40.718Z,54.72
2016-10-04T12:14:40.845Z,56.16
2016-10-04T12:15:40.606Z,56.23
2016-10-04T12:16:40.440Z,57.12
2016-10-04T12:17:40.216Z,58.84
2016-10-04T12:18:41.159Z,57.67
2016-10-04T12:19:40.774Z,58.27
2016-10-04T12:20:40.835Z,59.3
2016-10-04T12:21:40.392Z,57.95
2016-10-04T12:22:40.839Z,55.9
2016-10-04T12:23:41.052Z,52.98
2016-10-04T12:24:40.725Z,56.73
2016-10-04T12:25:40.909Z,55.57
2016-10-04T12:26:41.260Z,56.24
2016-10-04T12:27:40.792Z,56.12
2016-10-04T12:28:41.025Z,57.46
2016-10-04T12:29:41.020Z,57.28
2016-10-04T12:30:42.013Z,57.92
2016-10-04T12:31:41.398Z,59.42
2016-10-04T12:32:40.599Z,58.27
2016-10-04T12:33:41.574Z,59.2
2016-10-04T12:34:41.126Z,58.65
2016-10-04T12:35:40.810Z,56.09
2016-10-04T12:36:41.303Z,56.09
2016-10-04T12:37:40.992Z,56.26
2016-10-04T12:38:40.989Z,56.83
2016-10-04T12:39:41.066Z,55.64
2016-10-04T12:40:41.250Z,54.21
2016-10-04T12:41:41.460Z,54.85
2016-10-04T12:42:41.048Z,55.62
2016-10-04T12:43:41.465Z,56.22
2016-10-04T12:44:42.036Z,53.53
2016-10-04T12:45:40.979Z,51.61
2016-10-04T12:46:41.705Z,51.73
2016-10-04T12:47:41.126Z,52.36
2016-10-04T12:48:41.621Z,51.76
2016-10-04T12:49:41.228Z,52.89
2016-10-04T12:50:41.438Z,54.39
2016-10-04T12:51:41.783Z,54.68
2016-10-04T12:52:41.302Z,54.33
2016-10-04T12:53:42.335Z,54.88
2016-10-04T12:54:41.530Z,56.19